Weather at Dawsons Airport

Public forecast

Using degrees Celsius for public forecast. Weather courtesy of forecast.io.

Closest aviation weather report (METAR) to Dawsons Airport

Report is more than 6 hours old.

Closest report is Robert Gabriel Mugabe International Airport, 56.8 nm (105.2 km) SSE. Retrieved 2020/10/17 06:00 UTC (5 days ago):

FVRG 170600Z /////KT CAVOK 21/06 Q1026 NOSIG

Closest aviation forecast (TAF) to Dawsons Airport

Forecast is more than 12 hours old.

Closest forecast is Robert Gabriel Mugabe International Airport, 56.8 nm (105.2 km) SSE. Retrieved 2020/10/05 06:00 UTC (17 days ago):

TAF FVRG 050400Z 0506/0612 07010KT CAVOK BECMG 0610/0612 9999 BKN050TCU